createdAt,value
2023-05-16T04:00:48.484Z,1004.60
2023-05-16T04:01:49.516Z,1004.62
2023-05-16T04:02:49.601Z,1004.63
2023-05-16T04:03:49.465Z,1004.65
2023-05-16T04:04:49.438Z,1004.65
2023-05-16T04:05:49.445Z,1004.70
2023-05-16T04:06:49.405Z,1004.70
2023-05-16T04:07:49.438Z,1004.70
2023-05-16T04:08:49.420Z,1004.74
2023-05-16T04:09:49.389Z,1004.74
2023-05-16T04:10:49.365Z,1004.70
2023-05-16T04:11:49.374Z,1004.71
2023-05-16T04:12:49.353Z,1004.74
2023-05-16T04:13:49.373Z,1004.72
2023-05-16T04:14:49.361Z,1004.76
2023-05-16T04:15:49.358Z,1004.79
2023-05-16T04:16:49.521Z,1004.79
2023-05-16T04:17:49.349Z,1004.80
2023-05-16T04:18:49.335Z,1004.80
2023-05-16T04:19:49.286Z,1004.81
2023-05-16T04:20:49.272Z,1004.84
2023-05-16T04:21:49.307Z,1004.86
2023-05-16T04:22:49.261Z,1004.85
2023-05-16T04:23:49.228Z,1004.85
2023-05-16T04:24:49.218Z,1004.89
2023-05-16T04:25:49.242Z,1004.92
2023-05-16T04:26:49.209Z,1004.96
2023-05-16T04:27:49.185Z,1004.97
2023-05-16T04:28:49.201Z,1005.02
2023-05-16T04:29:49.157Z,1005.02
2023-05-16T04:30:49.181Z,1005.04
2023-05-16T04:31:49.162Z,1005.04
2023-05-16T04:32:49.163Z,1005.06
2023-05-16T04:33:49.117Z,1005.07
2023-05-16T04:34:49.124Z,1005.10
2023-05-16T04:35:49.116Z,1005.11
2023-05-16T04:36:49.104Z,1005.11
2023-05-16T04:37:49.075Z,1005.14
2023-05-16T04:38:49.089Z,1005.16
2023-05-16T04:39:49.080Z,1005.18
2023-05-16T04:40:49.048Z,1005.18
2023-05-16T04:41:49.067Z,1005.21
2023-05-16T04:42:49.026Z,1005.19
2023-05-16T04:43:49.029Z,1005.21
2023-05-16T04:44:49.484Z,1005.21
2023-05-16T04:45:49.002Z,1005.24
2023-05-16T04:46:49.145Z,1005.22
2023-05-16T04:47:49.043Z,1005.21
2023-05-16T04:48:48.977Z,1005.28
2023-05-16T04:49:48.972Z,1005.30
2023-05-16T04:50:48.957Z,1005.32
2023-05-16T04:51:48.946Z,1005.35
2023-05-16T04:52:48.919Z,1005.37
2023-05-16T04:53:48.941Z,1005.33
2023-05-16T04:54:48.915Z,1005.39
2023-05-16T04:55:48.895Z,1005.39
2023-05-16T04:56:48.887Z,1005.41
2023-05-16T04:57:48.865Z,1005.42
2023-05-16T04:58:48.884Z,1005.43
2023-05-16T04:59:48.866Z,1005.44
2023-05-16T05:00:48.839Z,1005.47
2023-05-16T05:01:48.856Z,1005.48
2023-05-16T05:02:48.896Z,1005.49
2023-05-16T05:03:48.798Z,1005.52
2023-05-16T05:04:48.819Z,1005.51
2023-05-16T05:05:48.777Z,1005.52
2023-05-16T05:06:48.808Z,1005.51
2023-05-16T05:07:48.767Z,1005.55
2023-05-16T05:08:48.748Z,1005.55
2023-05-16T05:09:48.744Z,1005.55
2023-05-16T05:10:48.732Z,1005.57
2023-05-16T05:11:48.779Z,1005.56
2023-05-16T05:12:48.718Z,1005.54
2023-05-16T05:13:50.266Z,1005.55
2023-05-16T05:14:48.712Z,1005.56
2023-05-16T05:15:48.680Z,1005.56
2023-05-16T05:16:48.762Z,1005.58
2023-05-16T05:17:48.791Z,1005.58
2023-05-16T05:18:48.745Z,1005.60
2023-05-16T05:19:48.624Z,1005.61
2023-05-16T05:20:48.632Z,1005.59
2023-05-16T05:21:48.679Z,1005.64
2023-05-16T05:22:48.715Z,1005.66
2023-05-16T05:23:48.678Z,1005.72
2023-05-16T05:24:48.584Z,1005.74
2023-05-16T05:25:48.576Z,1005.73
2023-05-16T05:26:48.579Z,1005.77
2023-05-16T05:27:48.549Z,1005.78
2023-05-16T05:29:01.041Z,1005.80
2023-05-16T05:29:48.535Z,1005.79
2023-05-16T05:30:48.524Z,1005.82
2023-05-16T05:31:48.627Z,1005.81
2023-05-16T05:32:48.553Z,1005.85
2023-05-16T05:33:48.479Z,1005.84
2023-05-16T05:34:48.493Z,1005.88
2023-05-16T05:35:48.563Z,1005.87
2023-05-16T05:36:48.465Z,1005.89
2023-05-16T05:37:48.463Z,1005.90
2023-05-16T05:38:48.426Z,1005.90
2023-05-16T05:39:48.410Z,1005.92
2023-05-16T05:40:48.478Z,1005.89
2023-05-16T05:41:48.397Z,1005.89
2023-05-16T05:42:48.395Z,1005.91
2023-05-16T05:43:48.374Z,1005.93
2023-05-16T05:44:48.361Z,1005.94
2023-05-16T05:45:48.404Z,1005.95
2023-05-16T05:46:48.354Z,1005.96
2023-05-16T05:47:48.375Z,1005.95
2023-05-16T05:48:48.321Z,1005.94
2023-05-16T05:49:48.333Z,1006.00
2023-05-16T05:50:48.309Z,1005.97
2023-05-16T05:51:48.279Z,1006.00
2023-05-16T05:52:48.272Z,1005.99
2023-05-16T05:53:48.281Z,1006.00
2023-05-16T05:54:48.276Z,1005.98
2023-05-16T05:55:48.253Z,1005.99
2023-05-16T05:56:48.265Z,1005.98
2023-05-16T05:57:48.220Z,1006.02
2023-05-16T05:58:48.233Z,1006.02
2023-05-16T05:59:48.229Z,1006.04
2023-05-16T06:00:48.194Z,1006.04
2023-05-16T06:01:48.213Z,1006.06
2023-05-16T06:02:48.264Z,1006.06
2023-05-16T06:03:48.157Z,1006.05
2023-05-16T06:04:48.178Z,1006.07
2023-05-16T06:05:48.227Z,1006.08
2023-05-16T06:06:48.139Z,1006.09
2023-05-16T06:07:48.134Z,1006.12
2023-05-16T06:08:48.124Z,1006.14
2023-05-16T06:09:48.104Z,1006.14
2023-05-16T06:10:48.107Z,1006.15
2023-05-16T06:11:48.078Z,1006.16
2023-05-16T06:12:48.071Z,1006.20
2023-05-16T06:13:48.075Z,1006.17
2023-05-16T06:14:48.094Z,1006.19
2023-05-16T06:15:48.020Z,1006.19
2023-05-16T06:16:48.044Z,1006.20
2023-05-16T06:17:48.050Z,1006.20
2023-05-16T06:18:48.043Z,1006.23
2023-05-16T06:19:48.014Z,1006.23
2023-05-16T06:20:47.981Z,1006.26
2023-05-16T06:21:47.991Z,1006.28
2023-05-16T06:22:47.965Z,1006.28
2023-05-16T06:23:47.947Z,1006.31
2023-05-16T06:24:47.938Z,1006.31
2023-05-16T06:25:47.956Z,1006.30
2023-05-16T06:26:47.913Z,1006.35
2023-05-16T06:27:47.893Z,1006.37
2023-05-16T06:28:47.903Z,1006.38
2023-05-16T06:29:49.095Z,1006.43
2023-05-16T06:30:47.867Z,1006.40
2023-05-16T06:31:47.910Z,1006.39
2023-05-16T06:32:47.905Z,1006.43
2023-05-16T06:33:47.844Z,1006.40
2023-05-16T06:34:47.827Z,1006.40
2023-05-16T06:35:47.837Z,1006.41
2023-05-16T06:36:50.641Z,1006.41
2023-05-16T06:37:47.826Z,1006.43
2023-05-16T06:38:47.804Z,1006.43
2023-05-16T06:39:47.792Z,1006.43
2023-05-16T06:40:47.777Z,1006.45
2023-05-16T06:41:47.753Z,1006.46
2023-05-16T06:42:47.748Z,1006.49
2023-05-16T06:43:47.733Z,1006.50
2023-05-16T06:44:47.715Z,1006.49
2023-05-16T06:45:47.701Z,1006.49
2023-05-16T06:46:47.751Z,1006.52
2023-05-16T06:47:47.764Z,1006.51
2023-05-16T06:48:47.706Z,1006.54
2023-05-16T06:49:47.673Z,1006.56
2023-05-16T06:50:47.659Z,1006.57
2023-05-16T06:51:47.654Z,1006.56
2023-05-16T06:52:47.634Z,1006.54
2023-05-16T06:53:47.660Z,1006.55
2023-05-16T06:54:47.611Z,1006.55
2023-05-16T06:55:47.593Z,1006.58
2023-05-16T06:56:47.599Z,1006.54
2023-05-16T06:57:48.616Z,1006.55
2023-05-16T06:58:47.595Z,1006.54
2023-05-16T06:59:47.545Z,1006.52
2023-05-16T07:00:47.543Z,1006.53
2023-05-16T07:01:47.721Z,1006.54
2023-05-16T07:02:47.658Z,1006.56
2023-05-16T07:03:47.669Z,1006.56
2023-05-16T07:04:47.494Z,1006.59
2023-05-16T07:05:47.483Z,1006.58
2023-05-16T07:06:47.514Z,1006.56
2023-05-16T07:07:47.482Z,1006.59
2023-05-16T07:08:47.474Z,1006.59
2023-05-16T07:09:47.446Z,1006.60
2023-05-16T07:10:47.491Z,1006.61
2023-05-16T07:11:47.429Z,1006.62
2023-05-16T07:12:47.432Z,1006.63
2023-05-16T07:13:47.407Z,1006.62
2023-05-16T07:14:47.402Z,1006.62
2023-05-16T07:15:47.448Z,1006.63
2023-05-16T07:16:47.415Z,1006.61
2023-05-16T07:17:47.393Z,1006.59
2023-05-16T07:18:47.406Z,1006.63
2023-05-16T07:19:47.327Z,1006.59
2023-05-16T07:20:47.322Z,1006.62
2023-05-16T07:21:47.348Z,1006.61
2023-05-16T07:22:47.344Z,1006.62
2023-05-16T07:23:47.296Z,1006.64
2023-05-16T07:24:47.277Z,1006.67
2023-05-16T07:25:47.281Z,1006.70
2023-05-16T07:26:47.286Z,1006.66
2023-05-16T07:27:47.248Z,1006.70
2023-05-16T07:28:47.230Z,1006.67
2023-05-16T07:29:47.225Z,1006.66
2023-05-16T07:30:47.210Z,1006.70
2023-05-16T07:31:47.303Z,1006.72
2023-05-16T07:32:47.255Z,1006.76
2023-05-16T07:33:47.213Z,1006.74
2023-05-16T07:34:47.174Z,1006.75
2023-05-16T07:35:47.187Z,1006.74
2023-05-16T07:36:47.142Z,1006.78
2023-05-16T07:37:47.150Z,1006.77
2023-05-16T07:38:47.158Z,1006.78
2023-05-16T07:39:47.121Z,1006.76
2023-05-16T07:40:47.099Z,1006.76
2023-05-16T07:41:47.085Z,1006.77
2023-05-16T07:42:47.071Z,1006.77
2023-05-16T07:43:47.086Z,1006.78
2023-05-16T07:44:47.053Z,1006.79
2023-05-16T07:45:47.126Z,1006.79
2023-05-16T07:46:47.077Z,1006.77
2023-05-16T07:47:47.064Z,1006.78
2023-05-16T07:48:47.009Z,1006.77
2023-05-16T07:49:47.047Z,1006.78
2023-05-16T07:50:46.990Z,1006.76
2023-05-16T07:51:46.993Z,1006.77
2023-05-16T07:52:46.989Z,1006.77
2023-05-16T07:53:47.041Z,1006.76
2023-05-16T07:54:47.002Z,1006.75
2023-05-16T07:55:46.976Z,1006.74
2023-05-16T07:56:46.962Z,1006.75
2023-05-16T07:57:46.942Z,1006.73
2023-05-16T07:58:46.967Z,1006.73
2023-05-16T07:59:47.188Z,1006.74
2023-05-16T08:00:46.906Z,1006.76
2023-05-16T08:01:46.886Z,1006.78
2023-05-16T08:02:46.938Z,1006.78
2023-05-16T08:03:46.906Z,1006.77
2023-05-16T08:04:47.081Z,1006.78
2023-05-16T08:05:46.994Z,1006.79
2023-05-16T08:06:47.394Z,1006.76
2023-05-16T08:07:46.902Z,1006.75
2023-05-16T08:08:46.861Z,1006.78
2023-05-16T08:09:46.801Z,1006.81
2023-05-16T08:10:46.777Z,1006.80
2023-05-16T08:11:46.816Z,1006.77
2023-05-16T08:12:46.780Z,1006.79
2023-05-16T08:13:46.750Z,1006.77
2023-05-16T08:14:46.736Z,1006.77
2023-05-16T08:15:46.888Z,1006.81
2023-05-16T08:16:46.779Z,1006.82
2023-05-16T08:17:46.774Z,1006.79
2023-05-16T08:18:46.721Z,1006.79
2023-05-16T08:19:46.688Z,1006.82
2023-05-16T08:20:46.670Z,1006.80
2023-05-16T08:21:46.682Z,1006.85
2023-05-16T08:22:46.665Z,1006.80
2023-05-16T08:23:46.647Z,1006.84
2023-05-16T08:24:46.641Z,1006.80
2023-05-16T08:25:46.627Z,1006.82
2023-05-16T08:26:46.672Z,1006.83
2023-05-16T08:27:46.601Z,1006.81
2023-05-16T08:28:46.606Z,1006.87
2023-05-16T08:29:46.612Z,1006.83
2023-05-16T08:30:48.070Z,1006.79
2023-05-16T08:31:46.634Z,1006.81
2023-05-16T08:32:46.575Z,1006.86
2023-05-16T08:33:46.547Z,1006.87
2023-05-16T08:34:46.621Z,1006.84
2023-05-16T08:35:46.546Z,1006.81
2023-05-16T08:36:46.558Z,1006.83
2023-05-16T08:37:46.531Z,1006.73
2023-05-16T08:38:46.503Z,1006.88
2023-05-16T08:39:46.488Z,1006.86
2023-05-16T08:40:47.004Z,1006.81
2023-05-16T08:41:46.532Z,1006.84
2023-05-16T08:42:46.474Z,1006.84
2023-05-16T08:43:46.481Z,1006.79
2023-05-16T08:44:46.450Z,1006.81
2023-05-16T08:45:46.469Z,1006.87
2023-05-16T08:46:46.452Z,1006.87
2023-05-16T08:47:46.432Z,1006.87
2023-05-16T08:48:46.416Z,1006.89
2023-05-16T08:49:46.411Z,1006.88
2023-05-16T08:50:46.426Z,1006.80
2023-05-16T08:51:46.343Z,1006.88
2023-05-16T08:52:46.378Z,1006.85
2023-05-16T08:53:46.346Z,1006.86
2023-05-16T08:54:50.283Z,1006.83
2023-05-16T08:55:46.318Z,1006.86
2023-05-16T08:56:46.279Z,1006.86
2023-05-16T08:57:46.285Z,1006.89
2023-05-16T08:58:46.300Z,1006.89
2023-05-16T08:59:46.268Z,1006.89
2023-05-16T09:00:46.319Z,1006.88
2023-05-16T09:01:46.406Z,1006.89
2023-05-16T09:02:46.242Z,1006.87
2023-05-16T09:03:46.323Z,1006.87
2023-05-16T09:04:46.207Z,1006.84
2023-05-16T09:05:46.210Z,1006.87
2023-05-16T09:06:46.173Z,1006.80
2023-05-16T09:07:46.222Z,1006.84
2023-05-16T09:08:46.191Z,1006.79
2023-05-16T09:09:46.150Z,1006.83
2023-05-16T09:10:46.157Z,1006.79
2023-05-16T09:11:46.125Z,1006.75
2023-05-16T09:12:46.128Z,1006.78
2023-05-16T09:13:46.137Z,1006.77
2023-05-16T09:14:46.088Z,1006.76
2023-05-16T09:15:46.116Z,1006.76
2023-05-16T09:16:46.095Z,1006.79
2023-05-16T09:17:46.362Z,1006.78
2023-05-16T09:18:46.186Z,1006.79
2023-05-16T09:19:46.109Z,1006.84
2023-05-16T09:20:46.044Z,1006.79
2023-05-16T09:21:46.052Z,1006.82
2023-05-16T09:22:46.009Z,1006.84
2023-05-16T09:23:45.988Z,1006.80
2023-05-16T09:24:45.982Z,1006.79
2023-05-16T09:25:45.984Z,1006.82
2023-05-16T09:26:45.968Z,1006.81
2023-05-16T09:27:45.969Z,1006.87
2023-05-16T09:28:45.947Z,1006.84
2023-05-16T09:29:45.944Z,1006.82
2023-05-16T09:30:45.949Z,1006.84
2023-05-16T09:31:46.052Z,1006.83
2023-05-16T09:32:45.919Z,1006.77
2023-05-16T09:33:45.909Z,1006.75
2023-05-16T09:34:45.885Z,1006.76
2023-05-16T09:35:45.970Z,1006.72
2023-05-16T09:36:45.888Z,1006.72
2023-05-16T09:37:45.879Z,1006.74
2023-05-16T09:38:45.831Z,1006.77
2023-05-16T09:39:45.823Z,1006.76
2023-05-16T09:40:45.829Z,1006.72
2023-05-16T09:41:45.836Z,1006.76
2023-05-16T09:42:45.791Z,1006.75
2023-05-16T09:43:45.782Z,1006.77
2023-05-16T09:44:45.779Z,1006.82
2023-05-16T09:45:45.763Z,1006.86
2023-05-16T09:46:45.810Z,1006.83
2023-05-16T09:47:45.783Z,1006.83
2023-05-16T09:48:45.728Z,1006.82
2023-05-16T09:49:45.800Z,1006.82
2023-05-16T09:50:45.719Z,1006.80
2023-05-16T09:51:45.692Z,1006.83
2023-05-16T09:52:45.683Z,1006.76
2023-05-16T09:53:45.684Z,1006.80
2023-05-16T09:54:45.737Z,1006.83
2023-05-16T09:55:45.662Z,1006.81
2023-05-16T09:56:45.636Z,1006.83
2023-05-16T09:57:46.553Z,1006.82
2023-05-16T09:58:46.539Z,1006.83
2023-05-16T09:59:45.614Z,1006.86
2023-05-16T10:00:46.434Z,1006.82
2023-05-16T10:01:45.608Z,1006.80
2023-05-16T10:02:45.604Z,1006.79
2023-05-16T10:03:45.678Z,1006.82
2023-05-16T10:04:45.722Z,1006.79
2023-05-16T10:05:45.536Z,1006.75
2023-05-16T10:06:45.532Z,1006.76
2023-05-16T10:07:45.516Z,1006.79
2023-05-16T10:08:45.530Z,1006.75
2023-05-16T10:09:45.498Z,1006.76
2023-05-16T10:10:45.513Z,1006.72
2023-05-16T10:11:45.489Z,1006.70
2023-05-16T10:12:45.492Z,1006.70
2023-05-16T10:13:45.465Z,1006.65
2023-05-16T10:14:45.456Z,1006.70
2023-05-16T10:15:45.453Z,1006.68
2023-05-16T10:16:45.472Z,1006.72
2023-05-16T10:17:45.517Z,1006.72
2023-05-16T10:18:45.455Z,1006.73
2023-05-16T10:19:45.390Z,1006.73
2023-05-16T10:20:45.375Z,1006.75
2023-05-16T10:21:45.364Z,1006.75
2023-05-16T10:22:45.362Z,1006.76
2023-05-16T10:23:45.380Z,1006.77
2023-05-16T10:24:45.317Z,1006.74
2023-05-16T10:25:45.367Z,1006.75
2023-05-16T10:26:45.303Z,1006.74
2023-05-16T10:27:45.309Z,1006.73
2023-05-16T10:28:45.301Z,1006.71
2023-05-16T10:29:54.286Z,1006.74
2023-05-16T10:30:45.274Z,1006.69
2023-05-16T10:31:45.335Z,1006.67
2023-05-16T10:32:45.328Z,1006.65
2023-05-16T10:33:45.238Z,1006.61
2023-05-16T10:34:45.229Z,1006.64
2023-05-16T10:35:45.228Z,1006.61
2023-05-16T10:36:45.245Z,1006.63
2023-05-16T10:37:45.204Z,1006.61
2023-05-16T10:38:45.214Z,1006.65
2023-05-16T10:39:45.182Z,1006.68
2023-05-16T10:40:45.167Z,1006.63
2023-05-16T10:41:45.167Z,1006.64
2023-05-16T10:42:45.143Z,1006.67
2023-05-16T10:43:45.153Z,1006.65
2023-05-16T10:44:54.475Z,1006.64
2023-05-16T10:45:45.143Z,1006.63
2023-05-16T10:46:45.114Z,1006.68
2023-05-16T10:47:45.161Z,1006.63
2023-05-16T10:48:45.078Z,1006.62
2023-05-16T10:49:45.096Z,1006.64
2023-05-16T10:50:45.072Z,1006.63
2023-05-16T10:51:45.053Z,1006.65
2023-05-16T10:52:45.036Z,1006.61
2023-05-16T10:53:45.059Z,1006.58
2023-05-16T10:54:44.996Z,1006.53
2023-05-16T10:55:45.018Z,1006.53
2023-05-16T10:56:45.000Z,1006.54
2023-05-16T10:57:44.972Z,1006.54
2023-05-16T10:58:44.948Z,1006.50
2023-05-16T10:59:44.947Z,1006.50
2023-05-16T11:00:45.265Z,1006.43
2023-05-16T11:01:44.970Z,1006.55
2023-05-16T11:02:45.024Z,1006.49
2023-05-16T11:03:45.010Z,1006.46
2023-05-16T11:04:44.996Z,1006.52
2023-05-16T11:05:44.895Z,1006.56
2023-05-16T11:06:44.864Z,1006.46
2023-05-16T11:07:44.870Z,1006.56
2023-05-16T11:08:44.848Z,1006.61
2023-05-16T11:09:44.882Z,1006.55
2023-05-16T11:10:44.824Z,1006.61
2023-05-16T11:11:47.990Z,1006.66
2023-05-16T11:12:44.797Z,1006.65
2023-05-16T11:13:44.824Z,1006.68
2023-05-16T11:14:44.810Z,1006.67
2023-05-16T11:15:44.771Z,1006.68
2023-05-16T11:16:44.788Z,1006.70
2023-05-16T11:17:46.201Z,1006.67
2023-05-16T11:18:44.812Z,1006.70
2023-05-16T11:19:44.759Z,1006.70
2023-05-16T11:20:44.727Z,1006.72
2023-05-16T11:21:44.724Z,1006.72
2023-05-16T11:22:44.705Z,1006.72
2023-05-16T11:23:44.747Z,1006.70
2023-05-16T11:24:44.773Z,1006.75
2023-05-16T11:25:44.696Z,1006.74
2023-05-16T11:26:44.649Z,1006.73
2023-05-16T11:27:44.642Z,1006.73
2023-05-16T11:28:44.639Z,1006.73
2023-05-16T11:29:44.617Z,1006.73
2023-05-16T11:30:44.667Z,1006.72
2023-05-16T11:31:44.680Z,1006.74
2023-05-16T11:32:44.619Z,1006.78
2023-05-16T11:33:44.604Z,1006.80
2023-05-16T11:34:44.572Z,1006.80
2023-05-16T11:35:44.558Z,1006.82
2023-05-16T11:36:44.549Z,1006.83
2023-05-16T11:37:44.561Z,1006.81
2023-05-16T11:38:44.573Z,1006.84
2023-05-16T11:39:44.559Z,1006.84
2023-05-16T11:40:44.552Z,1006.80
2023-05-16T11:41:44.506Z,1006.80
2023-05-16T11:42:44.521Z,1006.82
2023-05-16T11:43:44.488Z,1006.85
2023-05-16T11:44:44.452Z,1006.83
2023-05-16T11:45:44.439Z,1006.83
2023-05-16T11:46:44.490Z,1006.82
2023-05-16T11:47:44.641Z,1006.79
2023-05-16T11:48:44.444Z,1006.80
2023-05-16T11:49:44.401Z,1006.77
2023-05-16T11:50:44.391Z,1006.75
2023-05-16T11:51:44.411Z,1006.75
2023-05-16T11:52:44.394Z,1006.70
2023-05-16T11:53:44.381Z,1006.72
2023-05-16T11:54:44.364Z,1006.72
2023-05-16T11:55:45.274Z,1006.75
2023-05-16T11:56:44.339Z,1006.80
2023-05-16T11:57:44.310Z,1006.82
2023-05-16T11:58:44.327Z,1006.81
2023-05-16T11:59:44.302Z,1006.78
2023-05-16T12:00:44.298Z,1006.75
2023-05-16T12:01:44.294Z,1006.76
2023-05-16T12:02:44.328Z,1006.81
2023-05-16T12:03:44.441Z,1006.75
2023-05-16T12:04:44.460Z,1006.75
2023-05-16T12:05:44.409Z,1006.77
2023-05-16T12:06:44.237Z,1006.74
2023-05-16T12:07:44.214Z,1006.72
2023-05-16T12:08:44.190Z,1006.76
2023-05-16T12:09:44.183Z,1006.72
2023-05-16T12:10:44.241Z,1006.72
2023-05-16T12:11:44.155Z,1006.67
2023-05-16T12:12:44.162Z,1006.68
2023-05-16T12:13:44.145Z,1006.67
2023-05-16T12:14:44.177Z,1006.64
2023-05-16T12:15:44.111Z,1006.63
2023-05-16T12:16:44.281Z,1006.65
2023-05-16T12:17:44.122Z,1006.71
2023-05-16T12:18:44.220Z,1006.61
2023-05-16T12:19:44.079Z,1006.57
2023-05-16T12:20:44.064Z,1006.55
2023-05-16T12:21:44.078Z,1006.59
2023-05-16T12:22:44.048Z,1006.61
2023-05-16T12:23:44.094Z,1006.59
2023-05-16T12:24:44.064Z,1006.57
2023-05-16T12:25:44.006Z,1006.58
2023-05-16T12:26:44.002Z,1006.65
2023-05-16T12:27:45.718Z,1006.67
2023-05-16T12:28:43.998Z,1006.71
2023-05-16T12:29:43.974Z,1006.70
2023-05-16T12:30:43.964Z,1006.63
2023-05-16T12:31:43.975Z,1006.69
2023-05-16T12:32:44.252Z,1006.64
2023-05-16T12:33:43.982Z,1006.63
2023-05-16T12:34:43.918Z,1006.62
2023-05-16T12:35:43.897Z,1006.56
2023-05-16T12:36:43.914Z,1006.53
2023-05-16T12:37:43.913Z,1006.54
2023-05-16T12:38:44.608Z,1006.58
2023-05-16T12:39:43.867Z,1006.58
2023-05-16T12:40:43.919Z,1006.59
2023-05-16T12:41:43.835Z,1006.60
2023-05-16T12:42:43.828Z,1006.62
2023-05-16T12:43:43.830Z,1006.56
2023-05-16T12:44:43.802Z,1006.57
2023-05-16T12:45:43.791Z,1006.56
2023-05-16T12:46:43.847Z,1006.60
2023-05-16T12:47:43.813Z,1006.58
2023-05-16T12:48:43.791Z,1006.58
2023-05-16T12:49:43.753Z,1006.62
2023-05-16T12:50:43.742Z,1006.36
2023-05-16T12:51:43.727Z,1006.57
2023-05-16T12:52:43.742Z,1006.54
2023-05-16T12:53:45.829Z,1006.64
2023-05-16T12:54:43.697Z,1006.73
2023-05-16T12:55:43.707Z,1006.64
2023-05-16T12:56:43.680Z,1006.63
2023-05-16T12:57:43.702Z,1006.71
2023-05-16T12:58:43.721Z,1006.66
2023-05-16T12:59:43.632Z,1006.67
2023-05-16T13:00:43.649Z,1006.64
2023-05-16T13:01:43.706Z,1006.64
2023-05-16T13:02:43.720Z,1006.64
2023-05-16T13:03:43.717Z,1006.60
2023-05-16T13:04:43.588Z,1006.63
2023-05-16T13:05:43.820Z,1006.63
2023-05-16T13:06:57.382Z,1006.61
2023-05-16T13:07:43.548Z,1006.61
2023-05-16T13:08:43.561Z,1006.67
2023-05-16T13:09:43.547Z,1006.65
2023-05-16T13:10:43.742Z,1006.65
2023-05-16T13:11:43.544Z,1006.69
2023-05-16T13:12:43.546Z,1006.66
2023-05-16T13:13:43.500Z,1006.62
2023-05-16T13:14:44.043Z,1006.64
2023-05-16T13:15:43.517Z,1006.64
2023-05-16T13:16:43.692Z,1006.64
2023-05-16T13:17:43.480Z,1006.66
2023-05-16T13:18:43.474Z,1006.73
2023-05-16T13:19:43.429Z,1006.72
2023-05-16T13:20:43.496Z,1006.66
2023-05-16T13:21:43.479Z,1006.68
2023-05-16T13:22:43.427Z,1006.66
2023-05-16T13:23:43.427Z,1006.65
2023-05-16T13:24:43.417Z,1006.66
2023-05-16T13:25:43.382Z,1006.70
2023-05-16T13:26:43.348Z,1006.67
2023-05-16T13:27:43.350Z,1006.69
2023-05-16T13:28:43.410Z,1006.72
2023-05-16T13:29:43.353Z,1006.72
2023-05-16T13:30:43.357Z,1006.73
2023-05-16T13:31:44.133Z,1006.69
2023-05-16T13:32:43.436Z,1006.70
2023-05-16T13:33:43.260Z,1006.69
2023-05-16T13:34:43.252Z,1006.66
2023-05-16T13:35:44.114Z,1006.69
2023-05-16T13:36:54.021Z,1006.69
2023-05-16T13:37:43.225Z,1006.65
2023-05-16T13:38:43.233Z,1006.67
2023-05-16T13:39:43.256Z,1006.66
2023-05-16T13:40:43.183Z,1006.67
2023-05-16T13:41:43.171Z,1006.74
2023-05-16T13:42:43.203Z,1006.76
2023-05-16T13:43:43.167Z,1006.72
2023-05-16T13:44:43.146Z,1006.70
2023-05-16T13:45:43.161Z,1006.81
2023-05-16T13:46:43.133Z,1006.81
2023-05-16T13:47:43.232Z,1006.84
2023-05-16T13:48:43.104Z,1006.86
2023-05-16T13:49:43.099Z,1006.86
2023-05-16T13:50:44.286Z,1006.86
2023-05-16T13:51:43.068Z,1006.81
2023-05-16T13:52:43.061Z,1006.86
2023-05-16T13:53:43.075Z,1006.86
2023-05-16T13:54:43.031Z,1006.82
2023-05-16T13:55:43.028Z,1006.89
2023-05-16T13:56:43.028Z,1006.90
2023-05-16T13:57:43.059Z,1006.86
2023-05-16T13:58:56.563Z,1006.85
2023-05-16T14:00:45.606Z,1006.94
2023-05-16T14:01:43.033Z,1006.84
2023-05-16T14:02:43.044Z,1006.85
2023-05-16T14:03:43.119Z,1006.81
2023-05-16T14:04:42.923Z,1006.83
2023-05-16T14:05:42.959Z,1006.84
2023-05-16T14:06:42.892Z,1006.85
2023-05-16T14:07:45.403Z,1006.88
2023-05-16T14:08:42.885Z,1006.82
2023-05-16T14:09:42.867Z,1006.84
2023-05-16T14:10:42.883Z,1006.85
2023-05-16T14:11:42.842Z,1006.83
2023-05-16T14:12:42.861Z,1006.83
2023-05-16T14:13:42.816Z,1006.82
2023-05-16T14:14:42.833Z,1006.87
2023-05-16T14:15:42.820Z,1006.90
2023-05-16T14:16:42.804Z,1006.88
2023-05-16T14:17:42.864Z,1006.80
2023-05-16T14:18:42.784Z,1006.78
2023-05-16T14:19:42.767Z,1006.79
2023-05-16T14:20:42.772Z,1006.81
2023-05-16T14:21:42.770Z,1006.78
2023-05-16T14:22:42.770Z,1006.80
2023-05-16T14:23:42.724Z,1006.76
2023-05-16T14:24:42.708Z,1006.72
2023-05-16T14:25:42.705Z,1006.84
2023-05-16T14:26:42.681Z,1006.85
2023-05-16T14:27:42.665Z,1006.87
2023-05-16T14:28:42.665Z,1006.90
2023-05-16T14:29:42.706Z,1006.86
2023-05-16T14:30:42.651Z,1006.88
2023-05-16T14:31:42.711Z,1006.88
2023-05-16T14:32:42.674Z,1006.91
2023-05-16T14:33:42.612Z,1006.91
2023-05-16T14:34:42.609Z,1006.91
2023-05-16T14:35:42.585Z,1006.93
2023-05-16T14:36:42.619Z,1006.91
2023-05-16T14:37:42.563Z,1006.90
2023-05-16T14:38:42.576Z,1006.91
2023-05-16T14:39:42.541Z,1006.90
2023-05-16T14:40:42.569Z,1006.85
2023-05-16T14:41:42.532Z,1006.88
2023-05-16T14:42:42.514Z,1006.93
2023-05-16T14:43:42.489Z,1006.90
2023-05-16T14:44:42.496Z,1006.93
2023-05-16T14:45:42.539Z,1006.94
2023-05-16T14:46:42.500Z,1006.94
2023-05-16T14:47:42.699Z,1006.96
2023-05-16T14:48:42.463Z,1006.96
2023-05-16T14:49:42.464Z,1006.92
2023-05-16T14:50:42.432Z,1006.96
2023-05-16T14:51:42.428Z,1006.98
2023-05-16T14:52:42.419Z,1006.97
2023-05-16T14:53:43.727Z,1006.97
2023-05-16T14:54:42.398Z,1006.99
2023-05-16T14:55:42.411Z,1007.01
2023-05-16T14:56:42.371Z,1006.98
2023-05-16T14:57:45.267Z,1007.01
2023-05-16T14:58:42.336Z,1007.02
2023-05-16T14:59:42.351Z,1007.05
2023-05-16T15:00:42.330Z,1007.05
2023-05-16T15:01:42.436Z,1007.05
2023-05-16T15:02:42.362Z,1007.07
2023-05-16T15:03:54.663Z,1007.04
2023-05-16T15:04:42.363Z,1007.07
2023-05-16T15:05:42.319Z,1007.08
2023-05-16T15:06:42.249Z,1007.09
2023-05-16T15:07:42.340Z,1007.10
2023-05-16T15:08:42.240Z,1007.12
2023-05-16T15:09:42.265Z,1007.11
2023-05-16T15:10:42.209Z,1007.14
2023-05-16T15:11:42.213Z,1007.15
2023-05-16T15:12:42.181Z,1007.19
2023-05-16T15:13:42.180Z,1007.20
2023-05-16T15:14:42.161Z,1007.24
2023-05-16T15:15:42.212Z,1007.25
2023-05-16T15:16:42.255Z,1007.26
2023-05-16T15:17:42.220Z,1007.27
2023-05-16T15:18:42.205Z,1007.27
2023-05-16T15:19:42.141Z,1007.31
2023-05-16T15:20:42.104Z,1007.32
2023-05-16T15:21:42.089Z,1007.31
2023-05-16T15:22:42.119Z,1007.31
2023-05-16T15:23:42.055Z,1007.34
2023-05-16T15:24:42.111Z,1007.31
2023-05-16T15:25:42.100Z,1007.31
2023-05-16T15:26:42.034Z,1007.31
2023-05-16T15:27:43.395Z,1007.32
2023-05-16T15:28:42.014Z,1007.31
2023-05-16T15:29:41.992Z,1007.32
2023-05-16T15:30:42.010Z,1007.30
2023-05-16T15:31:41.990Z,1007.31
2023-05-16T15:32:42.013Z,1007.31
2023-05-16T15:33:41.943Z,1007.34
2023-05-16T15:34:41.983Z,1007.32
2023-05-16T15:35:41.939Z,1007.35
2023-05-16T15:36:41.920Z,1007.34
2023-05-16T15:37:41.937Z,1007.35
2023-05-16T15:38:41.893Z,1007.38
2023-05-16T15:39:41.901Z,1007.37
2023-05-16T15:40:41.893Z,1007.38
2023-05-16T15:42:05.258Z,1007.39
2023-05-16T15:42:41.872Z,1007.40
2023-05-16T15:43:41.859Z,1007.44
2023-05-16T15:44:41.862Z,1007.41
2023-05-16T15:45:41.844Z,1007.43
2023-05-16T15:46:41.886Z,1007.41
2023-05-16T15:47:41.956Z,1007.44
2023-05-16T15:48:41.787Z,1007.45
2023-05-16T15:49:41.788Z,1007.49
2023-05-16T15:50:41.784Z,1007.49
2023-05-16T15:51:41.804Z,1007.51
2023-05-16T15:52:41.762Z,1007.48
2023-05-16T15:53:41.737Z,1007.50
2023-05-16T15:54:41.729Z,1007.51
2023-05-16T15:55:41.718Z,1007.51
2023-05-16T15:56:41.697Z,1007.52
2023-05-16T15:57:41.693Z,1007.51
2023-05-16T15:58:41.745Z,1007.52
2023-05-16T15:59:41.665Z,1007.52
2023-05-16T16:00:41.673Z,1007.53
2023-05-16T16:01:41.720Z,1007.54
2023-05-16T16:02:41.753Z,1007.56
2023-05-16T16:03:41.837Z,1007.53
2023-05-16T16:04:41.613Z,1007.54
2023-05-16T16:05:41.616Z,1007.54
2023-05-16T16:06:41.646Z,1007.53